Lena, Illinois
Current Conditions -  °F | °C
As of 6:55 AM on Saturday 25 Oct 2014 (Local Time) from KFEP Reporting Station
Moderate Fog Moderate Fog  
Wind Chill: 51°   Ceiling: 100
Heat Index: 51°   Visibility: 0mi
Dew Point: 51°   Wind: 5mph
Humidity: 99%   Direction: 270°W
Pressure: 29.95"   Gusts: NA
Location:  42.38°N, 89.82°W
Report Text: KFEP 251155Z AUTO 27004KT M1/4SM FG OVC001 11/10 A2995 RMK AO2 T01050103 10145 20105
Loading
Personal Weather Stations






























Interactive Weather Map New forecast layout! Learn more

10-Day Weather Forecast

Advertisements
Track Severe Weather on mobile